Time;durP1;ratioP1;P1;durP2;ratioP2;P2;SDS_P1;SDS_P2;PMS_P1;PMS_P2;Temp;Humidity;BMP_temperature;BMP_pressure;BME280_temperature;BME280_humidity;BME280_pressure;Samples;Min_cycle;Max_cycle;Signal;HPM_P1;HPM_P2
2023/10/29 00:02:13;;;;;;;5.65;2.58;;;;;;;21.22;51.63;100578.72;4898088;29;20052;-61
2023/10/29 00:04:41;;;;;;;3.60;1.83;;;;;;;21.22;51.64;100577.88;4898137;29;20075;-63
2023/10/29 00:07:08;;;;;;;4.10;2.65;;;;;;;21.21;51.57;100587.78;4898012;29;20041;-63
2023/10/29 00:09:35;;;;;;;4.03;2.50;;;;;;;21.20;51.61;100590.66;4898134;29;20114;-64
2023/10/29 00:12:03;;;;;;;4.70;2.55;;;;;;;21.19;51.57;100586.25;4898081;29;20049;-64
2023/10/29 00:14:30;;;;;;;6.05;2.50;;;;;;;21.20;51.61;100590.66;4881877;29;20057;-61
2023/10/29 00:16:58;;;;;;;3.90;2.08;;;;;;;21.18;51.56;100590.78;4898060;29;20053;-61
2023/10/29 00:19:26;;;;;;;3.90;2.20;;;;;;;21.19;51.61;100586.25;4898450;29;20055;-61
2023/10/29 00:21:53;;;;;;;3.42;2.10;;;;;;;21.18;51.59;100593.47;4896251;29;20059;-61
2023/10/29 00:24:22;;;;;;;3.55;2.33;;;;;;;21.18;51.58;100595.31;4883307;29;20480;-64
2023/10/29 00:26:50;;;;;;;6.68;2.65;;;;;;;21.17;51.62;100589.09;4897666;29;20060;-63
2023/10/29 00:29:17;;;;;;;5.10;2.35;;;;;;;21.17;51.58;100599.84;4898426;29;20048;-64
2023/10/29 00:31:45;;;;;;;4.03;2.50;;;;;;;21.17;51.63;100604.41;4897417;29;20064;-63
2023/10/29 00:34:12;;;;;;;4.07;2.00;;;;;;;21.16;51.63;100602.72;4896741;29;20422;-61
2023/10/29 00:36:40;;;;;;;4.50;2.13;;;;;;;21.15;51.56;100604.56;4898078;29;20041;-61
2023/10/29 00:39:07;;;;;;;5.70;2.33;;;;;;;21.16;51.49;100602.72;4897815;29;20048;-61
2023/10/29 00:41:35;;;;;;;4.00;2.05;;;;;;;21.15;51.63;100601.03;4897597;29;20060;-61
2023/10/29 00:44:02;;;;;;;4.55;2.10;;;;;;;21.16;51.59;100600.03;4881209;29;20512;-61
2023/10/29 00:46:30;;;;;;;4.65;2.20;;;;;;;21.15;51.63;100596.47;4897539;29;20048;-61
2023/10/29 00:48:59;;;;;;;4.30;2.50;;;;;;;21.14;51.51;100607.38;4881010;29;20053;-61
2023/10/29 00:51:26;;;;;;;3.42;1.83;;;;;;;21.14;51.56;100610.06;4880167;29;20061;-61
2023/10/29 00:53:54;;;;;;;4.13;2.35;;;;;;;21.13;51.65;100606.53;4897644;29;20060;-61
2023/10/29 00:56:21;;;;;;;3.47;2.10;;;;;;;21.14;51.71;100602.00;4880486;29;20064;-61
2023/10/29 00:58:51;;;;;;;4.15;1.92;;;;;;;21.14;51.69;100602.00;4897423;29;20060;-61
2023/10/29 01:01:19;;;;;;;4.05;2.65;;;;;;;21.12;51.74;100607.53;4897114;29;20071;-61
2023/10/29 01:03:46;;;;;;;3.92;2.30;;;;;;;21.12;51.72;100604.00;4876752;29;20475;-61
2023/10/29 01:06:15;;;;;;;4.22;2.10;;;;;;;21.12;51.61;100598.63;4898081;29;20060;-61
2023/10/29 01:08:43;;;;;;;3.42;2.30;;;;;;;21.12;51.76;100604.00;4880659;29;20056;-61
2023/10/29 01:11:11;;;;;;;4.43;2.15;;;;;;;21.12;51.73;100612.09;4865626;29;20064;-61
2023/10/29 01:13:38;;;;;;;4.57;2.17;;;;;;;21.12;51.72;100612.09;4897965;29;20048;-61
2023/10/29 01:16:06;;;;;;;4.43;2.42;;;;;;;21.12;51.67;100612.09;4888499;29;20052;-61
2023/10/29 01:18:34;;;;;;;3.10;1.88;;;;;;;21.11;51.73;100588.84;4897225;29;20055;-61
2023/10/29 01:21:01;;;;;;;3.00;2.00;;;;;;;21.10;51.80;100579.91;4897482;29;20056;-61
2023/10/29 01:23:30;;;;;;;3.85;2.05;;;;;;;21.12;51.72;100598.63;4876111;29;20052;-61
2023/10/29 01:25:58;;;;;;;3.58;2.00;;;;;;;21.10;51.64;100601.44;4869002;29;20507;-61
2023/10/29 01:28:26;;;;;;;4.05;2.20;;;;;;;21.10;51.71;100601.44;4900959;29;20055;-61
2023/10/29 01:30:53;;;;;;;3.05;1.70;;;;;;;21.10;51.77;100593.38;4901398;29;20060;-61
2023/10/29 01:33:20;;;;;;;4.32;2.28;;;;;;;21.10;51.71;100609.50;4898259;29;20097;-63
2023/10/29 01:35:48;;;;;;;5.20;2.40;;;;;;;21.10;51.75;100604.13;4899142;29;20049;-63
2023/10/29 01:38:15;;;;;;;4.50;2.05;;;;;;;21.09;51.85;100593.53;4900549;29;20134;-63
2023/10/29 01:40:43;;;;;;;3.10;1.95;;;;;;;21.08;51.76;100587.31;4899504;29;20423;-63
2023/10/29 01:43:11;;;;;;;2.97;1.70;;;;;;;21.09;51.65;100599.75;4896702;29;20057;-62
2023/10/29 01:45:38;;;;;;;4.50;2.00;;;;;;;21.08;51.79;100603.44;4901134;29;20052;-61
2023/10/29 01:48:06;;;;;;;4.47;1.58;;;;;;;21.08;51.62;100608.84;4901165;29;20048;-61
2023/10/29 01:50:35;;;;;;;3.70;2.05;;;;;;;21.09;51.73;100605.13;4900803;29;20045;-61
2023/10/29 01:53:03;;;;;;;4.07;2.00;;;;;;;21.08;51.76;100590.00;4898169;29;20403;-63
2023/10/29 01:55:35;;;;;;;3.25;1.92;;;;;;;21.08;51.75;100606.13;4898838;29;20502;-63
2023/10/29 01:58:03;;;;;;;3.95;1.95;;;;;;;21.08;51.69;100608.00;4882984;29;20507;-63
2023/10/29 02:00:31;;;;;;;3.58;2.05;;;;;;;21.09;51.75;100601.59;4898878;29;20060;-63
2023/10/29 02:02:59;;;;;;;3.80;2.00;;;;;;;21.07;51.75;100588.31;4900399;29;20065;-63
2023/10/29 02:05:26;;;;;;;3.20;2.10;;;;;;;21.06;51.81;100575.81;4900491;29;20495;-61
2023/10/29 02:07:55;;;;;;;3.88;1.80;;;;;;;21.06;51.69;100566.91;4900528;29;20060;-61
2023/10/29 02:10:25;;;;;;;5.07;2.13;;;;;;;21.06;51.66;100566.91;4900278;29;20411;-61
2023/10/29 02:12:53;;;;;;;3.83;2.13;;;;;;;21.06;51.55;100575.81;4898243;29;20057;-61
2023/10/29 02:15:20;;;;;;;4.80;1.77;;;;;;;21.07;51.72;100574.00;4900678;29;20048;-63
2023/10/29 02:17:47;;;;;;;3.05;1.85;;;;;;;21.05;51.67;100576.81;4900018;29;20045;-63
2023/10/29 02:20:15;;;;;;;3.00;1.48;;;;;;;21.05;51.71;100571.44;4897871;29;20056;-63
2023/10/29 02:22:42;;;;;;;3.85;1.98;;;;;;;21.05;51.71;100575.97;4900593;29;20048;-63
2023/10/29 02:25:10;;;;;;;2.72;1.60;;;;;;;21.04;51.71;100574.28;4873199;29;20357;-63
2023/10/29 02:27:37;;;;;;;3.70;1.95;;;;;;;21.04;51.77;100569.75;4894282;29;20048;-63
2023/10/29 02:30:05;;;;;;;3.35;1.95;;;;;;;21.05;51.72;100565.22;4900012;29;20060;-63
2023/10/29 02:32:33;;;;;;;3.15;1.80;;;;;;;21.03;51.74;100568.06;4899992;29;20140;-63
2023/10/29 02:35:00;;;;;;;3.55;1.60;;;;;;;21.03;51.83;100573.44;4900709;29;20059;-63
2023/10/29 02:37:28;;;;;;;3.38;1.83;;;;;;;21.04;51.86;100590.44;4897970;29;20056;-63
2023/10/29 02:39:55;;;;;;;2.53;1.40;;;;;;;21.04;51.66;100591.28;4880798;29;20072;-63
2023/10/29 02:42:23;;;;;;;3.05;1.50;;;;;;;21.03;51.63;100584.22;4899841;29;20076;-63
2023/10/29 02:44:52;;;;;;;3.90;1.80;;;;;;;21.03;51.62;100594.97;4899974;29;20057;-61
2023/10/29 02:47:21;;;;;;;2.67;1.35;;;;;;;21.04;51.70;100599.34;4898841;29;20415;-61
2023/10/29 02:49:48;;;;;;;3.85;1.95;;;;;;;21.04;51.63;100593.97;4899561;29;20525;-61
2023/10/29 02:52:15;;;;;;;2.95;1.60;;;;;;;21.05;51.76;100592.13;4897847;29;20064;-61
2023/10/29 02:54:43;;;;;;;4.18;1.70;;;;;;;21.06;51.82;100599.19;4899706;29;20056;-63
2023/10/29 02:57:10;;;;;;;2.75;1.58;;;;;;;21.06;51.98;100601.91;4897572;29;20447;-63
2023/10/29 02:59:37;;;;;;;4.80;2.10;;;;;;;21.05;51.95;100601.06;4899307;29;20053;-63
2023/10/29 03:02:05;;;;;;;3.20;1.70;;;;;;;21.04;51.89;100598.53;4899797;29;20515;-63
2023/10/29 03:04:33;;;;;;;4.40;1.80;;;;;;;21.04;51.84;100593.97;4899368;29;20064;-63
2023/10/29 03:07:01;;;;;;;2.90;1.42;;;;;;;21.03;51.64;100592.28;4899635;29;20053;-63
2023/10/29 03:09:28;;;;;;;3.40;1.80;;;;;;;21.03;51.84;100592.28;4899276;29;20052;-63
2023/10/29 03:11:55;;;;;;;3.00;1.70;;;;;;;21.04;51.76;100587.75;4882562;29;20049;-63
2023/10/29 03:14:23;;;;;;;2.88;1.67;;;;;;;21.03;51.61;100602.22;4899846;29;20056;-63
2023/10/29 03:16:50;;;;;;;2.35;1.33;;;;;;;21.01;51.67;100605.03;4899229;29;20416;-63
2023/10/29 03:19:18;;;;;;;3.08;1.70;;;;;;;21.02;51.57;100608.56;4897263;29;20506;-63
2023/10/29 03:21:47;;;;;;;3.05;1.65;;;;;;;21.01;51.73;100598.81;4881704;29;20053;-63
2023/10/29 03:24:15;;;;;;;2.80;1.40;;;;;;;21.01;51.75;100602.34;4899126;29;20045;-64
2023/10/29 03:26:43;;;;;;;4.30;1.80;;;;;;;21.00;51.60;100608.72;4884766;29;20069;-63
2023/10/29 03:29:11;;;;;;;2.70;1.58;;;;;;;20.99;51.74;100591.75;4897696;29;20388;-63
2023/10/29 03:31:38;;;;;;;3.33;1.83;;;;;;;20.99;51.71;100588.19;4898086;29;20054;-63
2023/10/29 03:34:07;;;;;;;3.65;1.60;;;;;;;20.98;51.65;100590.06;4899828;29;20055;-61
2023/10/29 03:36:35;;;;;;;4.20;1.50;;;;;;;20.97;51.71;100596.41;4897984;29;20053;-61
2023/10/29 03:39:03;;;;;;;2.97;1.60;;;;;;;20.98;51.65;100605.31;4898977;29;20040;-61
2023/10/29 03:41:30;;;;;;;4.70;1.75;;;;;;;20.98;51.75;100610.72;4899071;29;20064;-61
2023/10/29 03:43:58;;;;;;;3.15;1.60;;;;;;;20.97;51.69;100617.94;4898738;29;20063;-63
2023/10/29 03:46:25;;;;;;;2.97;1.85;;;;;;;20.98;51.64;100597.25;4897231;29;20064;-63
2023/10/29 03:48:53;;;;;;;3.17;2.00;;;;;;;20.98;51.84;100594.56;4881846;29;20047;-64
2023/10/29 03:51:20;;;;;;;4.03;1.67;;;;;;;20.97;51.81;100603.63;4898874;29;20052;-63
2023/10/29 03:53:48;;;;;;;3.45;1.63;;;;;;;20.97;51.85;100598.25;4881787;29;20052;-63
2023/10/29 03:56:15;;;;;;;3.05;1.77;;;;;;;20.96;51.71;100599.25;4897025;29;20052;-63
2023/10/29 03:58:42;;;;;;;2.60;1.35;;;;;;;20.96;51.70;100593.88;4898061;29;20059;-63
2023/10/29 04:01:13;;;;;;;3.90;1.63;;;;;;;20.95;51.77;100603.78;4881763;29;20060;-63
2023/10/29 04:03:43;;;;;;;3.13;1.70;;;;;;;20.95;51.70;100593.03;4898537;29;20060;-63
2023/10/29 04:06:11;;;;;;;3.25;1.55;;;;;;;20.96;51.77;100597.41;4898463;29;20056;-63
2023/10/29 04:08:39;;;;;;;2.60;1.20;;;;;;;20.95;51.70;100597.56;4877907;29;20424;-63
2023/10/29 04:11:07;;;;;;;3.30;1.65;;;;;;;20.95;51.75;100590.34;4871245;29;20044;-63
2023/10/29 04:13:34;;;;;;;3.05;1.40;;;;;;;20.94;51.75;100585.97;4897232;29;20094;-61
2023/10/29 04:16:02;;;;;;;4.00;1.75;;;;;;;20.95;51.79;100592.19;4881236;29;20096;-61
2023/10/29 04:18:31;;;;;;;2.60;1.50;;;;;;;20.94;51.83;100579.69;4898095;29;20055;-61
2023/10/29 04:21:03;;;;;;;3.65;1.80;;;;;;;20.95;51.75;100573.34;4888657;29;20053;-61
2023/10/29 04:23:31;;;;;;;3.38;1.48;;;;;;;20.94;51.94;100577.00;4898399;29;20048;-61
2023/10/29 04:25:58;;;;;;;3.15;1.40;;;;;;;20.94;51.80;100571.63;4895792;29;20072;-61
2023/10/29 04:28:26;;;;;;;3.97;1.40;;;;;;;20.93;51.88;100580.72;4885236;29;20041;-61
2023/10/29 04:30:55;;;;;;;3.78;1.67;;;;;;;20.93;51.88;100578.03;4898704;29;20052;-61
2023/10/29 04:33:23;;;;;;;3.78;1.80;;;;;;;20.93;51.80;100586.09;4898116;29;20048;-61
2023/10/29 04:35:51;;;;;;;3.50;1.60;;;;;;;20.93;51.85;100599.53;4897901;29;20056;-61
2023/10/29 04:38:18;;;;;;;3.55;1.38;;;;;;;20.93;51.89;100596.84;4897966;29;20048;-61
2023/10/29 04:40:45;;;;;;;3.42;1.48;;;;;;;20.93;51.85;100596.84;4898367;29;20049;-61
2023/10/29 04:43:13;;;;;;;3.22;1.60;;;;;;;20.92;51.94;100598.69;4897835;29;20040;-62
2023/10/29 04:45:40;;;;;;;4.38;1.48;;;;;;;20.92;51.99;100606.78;4897708;29;20056;-63
2023/10/29 04:48:07;;;;;;;4.07;1.65;;;;;;;20.92;51.93;100608.63;4898011;29;20061;-63
2023/10/29 04:50:35;;;;;;;2.83;1.48;;;;;;;20.91;51.86;100623.91;4897580;29;20518;-63
2023/10/29 04:53:02;;;;;;;2.97;1.70;;;;;;;20.92;51.92;100649.81;4897751;29;20056;-62
2023/10/29 04:55:29;;;;;;;3.95;1.85;;;;;;;20.92;51.86;100657.91;4897725;29;20045;-61
2023/10/29 04:57:57;;;;;;;2.85;1.65;;;;;;;20.94;51.78;100646.97;4897435;29;20427;-62
2023/10/29 05:00:24;;;;;;;2.38;1.48;;;;;;;20.92;51.65;100641.75;4897540;29;20055;-61
2023/10/29 05:02:51;;;;;;;3.35;1.65;;;;;;;20.92;51.80;100667.81;4896535;29;20048;-61
2023/10/29 05:05:19;;;;;;;4.28;1.80;;;;;;;20.92;51.75;100673.19;4897181;29;20041;-63
2023/10/29 05:07:46;;;;;;;3.63;1.75;;;;;;;20.92;51.64;100635.53;4897821;29;20059;-63
2023/10/29 05:10:13;;;;;;;2.90;1.30;;;;;;;20.91;51.75;100641.91;4897345;29;20064;-63
2023/10/29 05:12:41;;;;;;;3.45;1.48;;;;;;;20.91;51.71;100664.28;4897743;29;20045;-63
2023/10/29 05:15:12;;;;;;;2.28;1.30;;;;;;;20.91;51.73;100671.50;4897411;29;20499;-61
2023/10/29 05:17:40;;;;;;;3.13;1.38;;;;;;;20.91;51.62;100663.44;4898321;29;20399;-61
2023/10/29 05:20:09;;;;;;;3.22;1.55;;;;;;;20.91;51.77;100660.75;4880952;29;20387;-61
2023/10/29 05:22:37;;;;;;;2.42;1.42;;;;;;;20.90;51.84;100662.59;4897333;29;20522;-61
2023/10/29 05:25:08;;;;;;;2.92;1.70;;;;;;;20.89;51.69;100647.41;4897893;29;20152;-61
2023/10/29 05:27:36;;;;;;;3.20;1.63;;;;;;;20.89;51.83;100655.50;4891317;29;20044;-60
2023/10/29 05:30:05;;;;;;;3.70;1.83;;;;;;;20.90;51.79;100659.91;4887723;29;20040;-61
2023/10/29 05:32:33;;;;;;;2.97;1.50;;;;;;;20.90;51.86;100645.56;4897226;29;20049;-60
2023/10/29 05:35:00;;;;;;;2.35;1.42;;;;;;;20.89;52.01;100642.03;4897197;29;20053;-61
2023/10/29 05:37:27;;;;;;;3.40;1.55;;;;;;;20.89;51.95;100658.19;4897227;29;20392;-61
2023/10/29 05:39:55;;;;;;;3.13;1.95;;;;;;;20.90;51.91;100667.09;4897269;29;20056;-61
2023/10/29 05:42:23;;;;;;;2.83;1.50;;;;;;;20.88;51.98;100669.94;4897151;29;20529;-61
2023/10/29 05:44:50;;;;;;;2.90;1.42;;;;;;;20.90;52.19;100667.97;4897055;29;20052;-62
2023/10/29 05:47:17;;;;;;;3.05;1.70;;;;;;;20.89;51.99;100663.56;4897647;29;20578;-62
2023/10/29 05:49:45;;;;;;;2.63;1.20;;;;;;;20.89;52.07;100660.03;4897682;29;20037;-62
2023/10/29 05:52:12;;;;;;;2.58;1.45;;;;;;;20.91;52.13;100668.81;4897093;29;20403;-62
2023/10/29 05:54:40;;;;;;;2.80;1.42;;;;;;;20.89;52.18;100660.03;4897845;29;20048;-64
2023/10/29 05:57:07;;;;;;;3.60;1.75;;;;;;;20.88;52.16;100661.03;4896932;29;20048;-64
2023/10/29 05:59:34;;;;;;;3.15;1.50;;;;;;;20.89;52.11;100671.63;4897050;29;20765;-61
2023/10/29 06:02:02;;;;;;;2.25;1.20;;;;;;;20.89;52.19;100670.78;4897806;29;20060;-62
2023/10/29 06:04:30;;;;;;;2.85;1.77;;;;;;;20.89;52.05;100668.94;4896915;29;20075;-60
2023/10/29 06:06:57;;;;;;;4.07;1.90;;;;;;;20.88;52.17;100644.88;4897297;29;20052;-60
2023/10/29 06:09:24;;;;;;;3.85;1.98;;;;;;;20.88;52.26;100671.81;4897424;29;20099;-60
2023/10/29 06:11:52;;;;;;;2.50;1.42;;;;;;;20.87;52.25;100665.56;4897488;29;20049;-59
2023/10/29 06:14:22;;;;;;;3.35;1.27;;;;;;;20.88;52.20;100686.09;4900151;29;20055;-62
2023/10/29 06:16:56;;;;;;;2.25;1.00;;;;;;;20.88;52.12;100682.56;4900462;29;20048;-60
2023/10/29 06:19:38;;;;;;;3.58;1.70;;;;;;;20.88;52.22;100674.50;4900172;29;20048;-60
2023/10/29 06:22:06;;;;;;;2.28;1.10;;;;;;;20.87;52.27;100667.41;4900201;29;20499;-61
2023/10/29 06:24:34;;;;;;;4.82;1.88;;;;;;;20.88;52.28;100663.72;4900360;29;20052;-63
2023/10/29 06:27:02;;;;;;;2.90;1.50;;;;;;;20.88;52.26;100650.28;4900283;29;20055;-62
2023/10/29 06:29:29;;;;;;;3.03;1.95;;;;;;;20.87;52.29;100649.44;4887413;29;20048;-63
2023/10/29 06:31:57;;;;;;;2.80;1.40;;;;;;;20.88;52.35;100666.41;4898172;29;20407;-64
2023/10/29 06:34:24;;;;;;;3.25;1.38;;;;;;;20.89;52.39;100670.78;4899942;29;20056;-63
2023/10/29 06:36:52;;;;;;;3.25;1.30;;;;;;;20.89;52.24;100674.34;4900097;29;20049;-63
2023/10/29 06:39:19;;;;;;;4.05;1.42;;;;;;;20.89;52.15;100684.25;4900448;29;20049;-63
2023/10/29 06:41:46;;;;;;;2.38;1.58;;;;;;;20.89;52.22;100695.84;4899662;29;20411;-63
2023/10/29 06:44:14;;;;;;;2.67;1.40;;;;;;;20.90;52.09;100688.63;4899805;29;20053;-61
2023/10/29 06:46:41;;;;;;;3.25;1.40;;;;;;;20.89;52.20;100693.16;4900295;29;20544;-61
2023/10/29 06:49:08;;;;;;;2.50;1.33;;;;;;;20.90;52.29;100704.78;4899861;29;20041;-61
2023/10/29 06:51:36;;;;;;;2.70;1.45;;;;;;;20.90;52.21;100697.59;4899586;29;20439;-61
2023/10/29 06:54:03;;;;;;;2.97;1.30;;;;;;;20.89;52.25;100698.53;4899785;29;20060;-61
2023/10/29 06:56:32;;;;;;;2.60;1.30;;;;;;;20.90;52.28;100699.41;4899920;29;20044;-61
2023/10/29 06:58:59;;;;;;;3.20;1.38;;;;;;;20.90;52.36;100696.69;4899475;29;20052;-61
2023/10/29 07:01:26;;;;;;;2.50;1.10;;;;;;;20.90;52.42;100702.97;4899722;29;20055;-61
2023/10/29 07:03:54;;;;;;;2.90;1.20;;;;;;;20.90;52.34;100705.66;4882700;29;20490;-61
2023/10/29 07:06:21;;;;;;;2.55;1.13;;;;;;;20.90;52.36;100713.72;4899412;29;20059;-61
2023/10/29 07:08:49;;;;;;;3.53;1.52;;;;;;;20.91;52.33;100717.25;4899857;29;20049;-61
2023/10/29 07:11:18;;;;;;;2.63;1.52;;;;;;;20.91;52.40;100706.50;4899184;29;20418;-61
2023/10/29 07:13:45;;;;;;;3.42;1.38;;;;;;;20.91;52.46;100714.56;4899359;29;20052;-63
2023/10/29 07:16:16;;;;;;;2.35;1.30;;;;;;;20.90;52.49;100716.41;4899803;29;20874;-63
2023/10/29 07:18:44;;;;;;;3.30;1.70;;;;;;;20.90;52.52;100715.53;4899483;29;20388;-63
2023/10/29 07:21:14;;;;;;;4.97;1.58;;;;;;;20.90;52.50;100727.19;4866671;29;20105;-63
2023/10/29 07:23:42;;;;;;;2.65;1.50;;;;;;;20.90;52.47;100721.78;4898383;29;20049;-61
2023/10/29 07:26:09;;;;;;;2.42;1.08;;;;;;;20.90;52.58;100702.09;4898819;29;20079;-61
2023/10/29 07:28:36;;;;;;;3.35;1.40;;;;;;;20.89;52.50;100698.53;4899117;29;20056;-61
2023/10/29 07:31:04;;;;;;;2.47;1.23;;;;;;;20.90;52.28;100715.53;4884704;29;20057;-58
2023/10/29 07:33:32;;;;;;;4.18;2.00;;;;;;;20.86;52.59;100698.00;4899108;29;20068;-59
2023/10/29 07:36:03;;;;;;;3.70;2.00;;;;;;;20.81;52.24;100711.03;4899087;29;20415;-58
2023/10/29 07:38:30;;;;;;;3.92;2.35;;;;;;;20.71;52.29;100711.91;4899242;29;20052;-58
2023/10/29 07:40:58;;;;;;;3.25;2.25;;;;;;;20.64;52.21;100700.00;4898875;29;20045;-58
2023/10/29 07:43:25;;;;;;;4.93;2.10;;;;;;;20.58;52.30;100714.06;4899111;29;20055;-58
2023/10/29 07:45:53;;;;;;;4.25;2.88;;;;;;;20.53;52.17;100719.00;4898944;29;20056;-59
2023/10/29 07:48:22;;;;;;;4.85;2.45;;;;;;;20.47;52.28;100704.25;4899025;29;20056;-58
2023/10/29 07:50:52;;;;;;;3.08;2.03;;;;;;;20.43;52.40;100710.91;4899319;29;20049;-58
2023/10/29 07:53:20;;;;;;;4.30;2.30;;;;;;;20.42;52.56;100721.81;4899125;29;20048;-58
2023/10/29 07:55:47;;;;;;;4.53;2.50;;;;;;;20.40;52.61;100730.00;4898539;29;20063;-58
2023/10/29 07:58:15;;;;;;;4.78;2.50;;;;;;;20.37;52.68;100724.91;4899073;29;20063;-58
2023/10/29 08:00:42;;;;;;;3.53;2.05;;;;;;;20.35;52.79;100726.06;4895668;29;20040;-58
2023/10/29 08:03:09;;;;;;;4.38;2.72;;;;;;;20.33;52.64;100728.00;4898352;29;20048;-58
2023/10/29 08:05:37;;;;;;;4.72;2.03;;;;;;;20.27;52.76;100729.44;4898813;29;20510;-59
2023/10/29 08:08:05;;;;;;;3.75;2.33;;;;;;;20.25;52.73;100732.28;4898429;29;20480;-55
2023/10/29 08:10:33;;;;;;;4.63;3.08;;;;;;;20.27;52.84;100734.81;4898736;29;20048;-59
2023/10/29 08:13:02;;;;;;;4.47;2.78;;;;;;;20.29;52.88;100748.09;4898145;29;20419;-59
2023/10/29 08:15:30;;;;;;;4.00;2.50;;;;;;;20.31;53.14;100748.81;4898056;29;20077;-58
2023/10/29 08:17:57;;;;;;;4.72;2.72;;;;;;;20.31;53.05;100752.38;4896139;29;20052;-58
2023/10/29 08:20:24;;;;;;;4.25;2.67;;;;;;;20.30;53.01;100745.28;4896918;29;20044;-58
2023/10/29 08:22:52;;;;;;;4.80;2.67;;;;;;;20.31;53.13;100751.53;4889020;29;20044;-58
2023/10/29 08:25:19;;;;;;;4.97;2.40;;;;;;;20.31;53.24;100746.13;4897853;29;20052;-58
2023/10/29 08:27:46;;;;;;;5.53;2.70;;;;;;;20.30;53.17;100755.19;4897987;29;20061;-57
2023/10/29 08:30:14;;;;;;;5.05;2.67;;;;;;;20.29;53.18;100751.63;4895900;29;20048;-57
2023/10/29 08:32:41;;;;;;;3.10;2.17;;;;;;;20.28;53.00;100755.31;4888259;29;20407;-58
2023/10/29 08:35:09;;;;;;;4.80;2.67;;;;;;;20.26;53.10;100751.94;4897341;29;20044;-57
2023/10/29 08:37:37;;;;;;;4.95;2.17;;;;;;;20.25;53.31;100763.66;4897964;29;20056;-57
2023/10/29 08:40:05;;;;;;;3.88;2.30;;;;;;;20.23;53.40;100755.75;4897150;29;20045;-58
2023/10/29 08:42:33;;;;;;;4.90;2.25;;;;;;;20.23;53.46;100765.66;4886824;29;20044;-58
2023/10/29 08:45:00;;;;;;;3.45;2.20;;;;;;;20.23;53.40;100757.59;4898254;29;20060;-58
2023/10/29 08:47:29;;;;;;;3.60;2.40;;;;;;;20.23;53.42;100753.06;4896922;29;20056;-58
2023/10/29 08:49:58;;;;;;;4.32;2.35;;;;;;;20.27;53.71;100766.22;4897477;29;20049;-58
2023/10/29 08:52:25;;;;;;;4.07;2.20;;;;;;;20.29;53.73;100753.47;4897779;29;20052;-58
2023/10/29 08:54:53;;;;;;;5.68;2.70;;;;;;;20.32;53.68;100756.75;4897354;29;20067;-59
2023/10/29 08:57:21;;;;;;;4.40;2.58;;;;;;;20.34;53.89;100760.16;4897311;29;20361;-59
2023/10/29 08:59:48;;;;;;;4.70;2.22;;;;;;;20.39;53.78;100762.41;4897808;29;20048;-59
2023/10/29 09:02:16;;;;;;;6.00;2.42;;;;;;;20.42;53.72;100762.16;4897206;29;20056;-59
2023/10/29 09:04:43;;;;;;;5.93;2.30;;;;;;;20.41;53.70;100766.66;4897330;29;20044;-58
2023/10/29 09:07:10;;;;;;;3.78;2.30;;;;;;;20.42;53.78;100771.06;4897123;29;20063;-58
2023/10/29 09:09:38;;;;;;;7.35;3.00;;;;;;;20.41;53.79;100757.72;4897191;29;20403;-58
2023/10/29 09:12:08;;;;;;;3.42;2.22;;;;;;;20.43;54.08;100753.94;4896528;29;20837;-58
2023/10/29 09:14:35;;;;;;;5.13;2.88;;;;;;;20.43;53.92;100751.25;4897668;29;20403;-59
2023/10/29 09:17:02;;;;;;;4.32;2.22;;;;;;;20.43;53.96;100758.47;4897558;29;20050;-60
2023/10/29 09:19:30;;;;;;;4.90;2.58;;;;;;;20.40;54.16;100761.41;4897175;29;20049;-59
2023/10/29 09:21:57;;;;;;;3.63;2.65;;;;;;;20.40;54.14;100758.72;4880367;29;20483;-59
2023/10/29 09:24:24;;;;;;;6.97;2.75;;;;;;;20.41;54.19;100766.66;4897057;29;20053;-58
2023/10/29 09:26:53;;;;;;;4.53;2.47;;;;;;;20.37;54.39;100751.78;4877499;29;20057;-58
2023/10/29 09:29:20;;;;;;;5.00;2.83;;;;;;;20.36;54.44;100755.47;4878075;29;20049;-58
2023/10/29 09:31:48;;;;;;;5.45;2.60;;;;;;;20.36;54.36;100758.16;4872883;29;20044;-58
2023/10/29 09:34:15;;;;;;;4.05;2.05;;;;;;;20.36;54.50;100768.91;4870886;29;20045;-59
2023/10/29 09:36:43;;;;;;;4.28;2.53;;;;;;;20.35;54.61;100779.81;4878228;29;20518;-59
2023/10/29 09:39:11;;;;;;;4.78;2.05;;;;;;;20.34;54.60;100784.34;4878622;29;20056;-59
2023/10/29 09:41:38;;;;;;;4.10;2.08;;;;;;;20.33;54.62;100779.94;4877770;29;20049;-59
2023/10/29 09:44:09;;;;;;;3.78;2.40;;;;;;;20.31;54.76;100781.94;4878348;29;20530;-59
2023/10/29 09:46:37;;;;;;;3.15;2.15;;;;;;;20.33;54.81;100789.84;4879182;29;20052;-58
2023/10/29 09:49:04;;;;;;;3.17;1.98;;;;;;;20.35;54.91;100788.72;4882270;29;20510;-59
2023/10/29 09:51:33;;;;;;;5.43;2.63;;;;;;;20.37;54.79;100778.66;4881076;29;20127;-59
2023/10/29 09:54:01;;;;;;;6.03;2.33;;;;;;;20.38;54.76;100763.41;4882047;29;20053;-57
2023/10/29 09:56:29;;;;;;;4.72;2.05;;;;;;;20.37;54.90;100778.66;4881192;29;20061;-57
2023/10/29 09:58:57;;;;;;;2.72;1.88;;;;;;;20.40;54.99;100782.94;4878913;29;20052;-57
2023/10/29 10:01:24;;;;;;;4.28;2.45;;;;;;;20.40;54.90;100801.75;4881939;29;20041;-56
2023/10/29 10:03:52;;;;;;;4.10;2.05;;;;;;;20.43;55.02;100801.47;4881918;29;20056;-59
2023/10/29 10:06:20;;;;;;;5.32;2.33;;;;;;;20.43;55.26;100788.88;4881661;29;20045;-58
2023/10/29 10:08:55;;;;;;;3.92;2.40;;;;;;;20.44;55.07;100790.56;4881873;29;20419;-59
2023/10/29 10:11:24;;;;;;;4.60;2.65;;;;;;;20.45;55.40;100796.78;4881271;29;20052;-59
2023/10/29 10:13:51;;;;;;;5.40;2.53;;;;;;;20.44;55.14;100798.66;4882000;29;20496;-58
2023/10/29 10:16:20;;;;;;;5.82;2.25;;;;;;;20.46;55.27;100785.06;4881372;29;20053;-58
2023/10/29 10:18:55;;;;;;;6.35;2.30;;;;;;;20.46;55.18;100777.00;4880705;29;20053;-58
2023/10/29 10:21:41;;;;;;;4.47;2.58;;;;;;;20.45;55.21;100784.19;4881669;29;20041;-58
2023/10/29 10:24:08;;;;;;;4.82;2.15;;;;;;;20.46;55.41;100802.06;4881469;29;20061;-59
2023/10/29 10:26:37;;;;;;;4.60;2.03;;;;;;;20.47;55.48;100805.59;4898103;29;20052;-59
2023/10/29 10:29:07;;;;;;;3.83;2.42;;;;;;;20.49;55.51;100811.69;4900286;29;20051;-59
2023/10/29 10:31:38;;;;;;;3.33;1.90;;;;;;;20.47;55.53;100811.81;4900021;29;20055;-59
2023/10/29 10:34:13;;;;;;;7.80;2.80;;;;;;;20.47;55.50;100827.94;4882637;29;20431;-59
2023/10/29 10:36:43;;;;;;;4.65;2.53;;;;;;;20.47;55.58;100821.72;4889631;29;20045;-58
2023/10/29 10:39:11;;;;;;;7.05;2.50;;;;;;;20.47;55.61;100816.34;4899745;29;20044;-59
2023/10/29 10:41:46;;;;;;;5.82;2.60;;;;;;;20.46;55.83;100820.88;4899631;29;20060;-59
2023/10/29 10:44:15;;;;;;;4.70;2.38;;;;;;;20.46;55.77;100817.34;4900234;29;20048;-58
2023/10/29 10:46:50;;;;;;;5.78;2.40;;;;;;;20.46;55.97;100817.34;4899694;29;20075;-58
2023/10/29 10:49:18;;;;;;;4.15;2.70;;;;;;;20.46;56.21;100823.56;4899550;29;20052;-58
2023/10/29 10:51:48;;;;;;;5.65;2.08;;;;;;;20.46;56.21;100820.88;4899854;29;20048;-57
2023/10/29 10:54:19;;;;;;;4.72;2.65;;;;;;;20.46;56.20;100806.59;4899546;29;20045;-58
2023/10/29 10:56:49;;;;;;;8.10;3.25;;;;;;;20.46;56.39;100806.59;4898963;29;20415;-58
2023/10/29 10:59:17;;;;;;;4.30;2.70;;;;;;;20.45;56.51;100802.19;4899197;29;20407;-57
2023/10/29 11:01:45;;;;;;;5.80;3.35;;;;;;;20.45;56.68;100803.03;4896593;29;20479;-59
2023/10/29 11:04:14;;;;;;;6.82;2.92;;;;;;;20.48;56.84;100805.47;4899923;29;20055;-58
2023/10/29 11:06:43;;;;;;;7.72;3.08;;;;;;;20.49;56.92;100800.94;4899442;29;20049;-58
2023/10/29 11:09:13;;;;;;;4.88;2.72;;;;;;;20.51;56.91;100803.50;4899200;29;20048;-56
2023/10/29 11:11:50;;;;;;;5.45;3.63;;;;;;;20.51;56.90;100817.81;4898918;29;20152;-57
2023/10/29 11:14:19;;;;;;;4.68;3.20;;;;;;;20.51;57.10;100808.88;4899722;29;20395;-58
2023/10/29 11:16:56;;;;;;;8.57;3.70;;;;;;;20.49;57.05;100804.47;4899421;29;20495;-58
2023/10/29 11:19:34;;;;;;;5.82;4.15;;;;;;;20.48;57.10;100804.59;4899531;29;20052;-54
2023/10/29 11:22:29;;;;;;;8.63;3.65;;;;;;;20.48;57.19;100805.47;4899102;29;20056;-58
2023/10/29 11:25:07;;;;;;;6.32;3.83;;;;;;;20.48;57.22;100818.03;4898907;29;20061;-58
2023/10/29 11:27:46;;;;;;;6.65;3.58;;;;;;;20.49;57.38;100830.53;4899370;29;20525;-56
2023/10/29 11:30:23;;;;;;;7.88;3.90;;;;;;;20.48;57.45;100820.72;4899145;29;20053;-56